createdAt,value
2023-03-01T00:00:39.588Z,46.41
2023-03-01T00:01:39.578Z,48.66
2023-03-01T00:02:39.595Z,48.02
2023-03-01T00:03:39.587Z,49.31
2023-03-01T00:04:39.566Z,48.34
2023-03-01T00:05:39.543Z,46.08
2023-03-01T00:06:39.531Z,45.44
2023-03-01T00:07:39.513Z,46.57
2023-03-01T00:08:39.514Z,48.98
2023-03-01T00:09:39.517Z,48.82
2023-03-01T00:10:39.491Z,45.92
2023-03-01T00:11:39.489Z,48.18
2023-03-01T00:12:39.504Z,51.40
2023-03-01T00:13:39.456Z,56.24
2023-03-01T00:14:39.475Z,48.50
2023-03-01T00:15:39.439Z,46.08
2023-03-01T00:16:39.489Z,48.98
2023-03-01T00:17:39.456Z,47.53
2023-03-01T00:18:39.413Z,48.02
2023-03-01T00:19:39.399Z,56.40
2023-03-01T00:20:39.399Z,50.92
2023-03-01T00:21:39.405Z,48.18
2023-03-01T00:22:39.379Z,46.57
2023-03-01T00:23:39.385Z,45.60
2023-03-01T00:24:39.359Z,44.96
2023-03-01T00:25:39.339Z,44.31
2023-03-01T00:26:39.360Z,48.66
2023-03-01T00:27:39.322Z,51.40
2023-03-01T00:28:39.320Z,48.18
2023-03-01T00:29:39.321Z,45.28
2023-03-01T00:30:39.339Z,46.25
2023-03-01T00:31:39.312Z,46.08
2023-03-01T00:32:39.278Z,48.02
2023-03-01T00:33:39.281Z,47.53
2023-03-01T00:34:39.267Z,48.82
2023-03-01T00:35:39.287Z,49.63
2023-03-01T00:36:39.295Z,46.57
2023-03-01T00:37:39.240Z,48.18
2023-03-01T00:38:39.240Z,48.50
2023-03-01T00:39:39.219Z,47.70
2023-03-01T00:40:39.211Z,48.18
2023-03-01T00:41:39.211Z,47.21
2023-03-01T00:42:39.212Z,44.79
2023-03-01T00:43:39.182Z,45.76
2023-03-01T00:44:39.161Z,45.60
2023-03-01T00:45:39.169Z,49.15
2023-03-01T00:46:39.312Z,50.76
2023-03-01T00:47:39.160Z,46.73
2023-03-01T00:48:39.161Z,45.92
2023-03-01T00:49:39.136Z,45.92
2023-03-01T00:50:39.123Z,53.01
2023-03-01T00:51:39.094Z,46.89
2023-03-01T00:52:39.092Z,49.15
2023-03-01T00:53:39.077Z,48.18
2023-03-01T00:54:39.090Z,46.41
2023-03-01T00:55:39.062Z,47.53
2023-03-01T00:56:39.046Z,50.27
2023-03-01T00:57:39.025Z,53.82
2023-03-01T00:58:39.057Z,47.21
2023-03-01T00:59:39.035Z,48.34
2023-03-01T01:00:39.042Z,48.66
2023-03-01T01:01:39.092Z,47.53
2023-03-01T01:02:39.031Z,46.73
2023-03-01T01:03:38.987Z,48.82
2023-03-01T01:04:38.986Z,55.91
2023-03-01T01:05:38.970Z,47.21
2023-03-01T01:06:38.958Z,48.66
2023-03-01T01:07:38.934Z,45.76
2023-03-01T01:08:38.945Z,46.57
2023-03-01T01:09:38.947Z,48.98
2023-03-01T01:11:10.808Z,48.18
2023-03-01T01:11:38.898Z,46.89
2023-03-01T01:12:38.908Z,47.05
2023-03-01T01:13:38.881Z,46.73
2023-03-01T01:14:38.867Z,47.05
2023-03-01T01:15:38.891Z,49.47
2023-03-01T01:16:38.867Z,47.21
2023-03-01T01:17:38.843Z,46.25
2023-03-01T01:18:38.838Z,45.44
2023-03-01T01:19:38.825Z,48.98
2023-03-01T01:20:38.836Z,49.79
2023-03-01T01:21:38.813Z,48.98
2023-03-01T01:22:38.794Z,51.08
2023-03-01T01:23:38.824Z,53.98
2023-03-01T01:24:38.777Z,46.41
2023-03-01T01:25:38.765Z,46.73
2023-03-01T01:26:38.764Z,47.21
2023-03-01T01:27:38.751Z,47.05
2023-03-01T01:28:38.744Z,53.33
2023-03-01T01:29:38.731Z,49.15
2023-03-01T01:30:38.712Z,49.47
2023-03-01T01:31:38.728Z,49.31
2023-03-01T01:32:38.691Z,47.37
2023-03-01T01:33:38.698Z,48.50
2023-03-01T01:34:38.679Z,50.27
2023-03-01T01:35:38.685Z,47.53
2023-03-01T01:36:38.683Z,47.05
2023-03-01T01:37:38.654Z,47.86
2023-03-01T01:38:38.646Z,49.79
2023-03-01T01:39:38.644Z,51.40
2023-03-01T01:40:38.623Z,49.79
2023-03-01T01:41:38.616Z,50.43
2023-03-01T01:42:38.600Z,48.18
2023-03-01T01:43:38.592Z,44.63
2023-03-01T01:44:38.576Z,44.15
2023-03-01T01:45:38.578Z,44.47
2023-03-01T01:46:38.650Z,48.18
2023-03-01T01:47:38.555Z,48.98
2023-03-01T01:48:38.538Z,48.50
2023-03-01T01:49:38.531Z,48.18
2023-03-01T01:50:38.533Z,49.15
2023-03-01T01:51:38.520Z,50.76
2023-03-01T01:52:38.529Z,47.05
2023-03-01T01:53:38.497Z,46.41
2023-03-01T01:54:38.486Z,48.50
2023-03-01T01:55:38.482Z,48.34
2023-03-01T01:56:38.485Z,48.98
2023-03-01T01:57:38.460Z,47.05
2023-03-01T01:58:38.450Z,46.57
2023-03-01T01:59:38.436Z,46.25
2023-03-01T02:00:38.455Z,45.76
2023-03-01T02:01:38.418Z,51.40
2023-03-01T02:02:38.613Z,50.76
2023-03-01T02:03:38.676Z,53.66
2023-03-01T02:04:38.396Z,47.53
2023-03-01T02:05:38.393Z,45.44
2023-03-01T02:06:38.367Z,45.60
2023-03-01T02:07:39.371Z,48.34
2023-03-01T02:08:38.348Z,49.31
2023-03-01T02:09:38.345Z,46.73
2023-03-01T02:10:38.356Z,46.08
2023-03-01T02:11:38.322Z,46.25
2023-03-01T02:12:38.316Z,46.73
2023-03-01T02:13:38.315Z,45.92
2023-03-01T02:14:38.296Z,45.92
2023-03-01T02:15:38.309Z,48.50
2023-03-01T02:16:38.445Z,50.27
2023-03-01T02:17:38.261Z,54.95
2023-03-01T02:18:38.255Z,52.69
2023-03-01T02:19:38.236Z,50.27
2023-03-01T02:20:38.252Z,48.98
2023-03-01T02:21:38.227Z,48.02
2023-03-01T02:22:38.265Z,47.86
2023-03-01T02:23:38.204Z,49.95
2023-03-01T02:24:38.194Z,45.92
2023-03-01T02:25:38.214Z,45.60
2023-03-01T02:26:38.170Z,46.41
2023-03-01T02:27:38.214Z,48.34
2023-03-01T02:28:38.166Z,50.60
2023-03-01T02:29:38.156Z,44.79
2023-03-01T02:30:38.148Z,45.28
2023-03-01T02:31:38.211Z,46.57
2023-03-01T02:32:38.143Z,52.37
2023-03-01T02:33:38.133Z,47.21
2023-03-01T02:34:38.100Z,45.12
2023-03-01T02:35:38.132Z,45.12
2023-03-01T02:36:38.093Z,46.25
2023-03-01T02:37:38.074Z,48.98
2023-03-01T02:38:38.083Z,49.15
2023-03-01T02:39:38.050Z,48.34
2023-03-01T02:40:38.043Z,47.70
2023-03-01T02:41:38.037Z,45.28
2023-03-01T02:42:38.025Z,45.28
2023-03-01T02:43:38.039Z,46.57
2023-03-01T02:44:38.021Z,47.05
2023-03-01T02:45:38.023Z,50.27
2023-03-01T02:46:38.012Z,47.53
2023-03-01T02:47:37.977Z,48.02
2023-03-01T02:48:37.966Z,51.72
2023-03-01T02:49:37.957Z,49.31
2023-03-01T02:50:37.957Z,49.79
2023-03-01T02:51:38.938Z,50.11
2023-03-01T02:52:37.949Z,50.76
2023-03-01T02:53:37.929Z,53.17
2023-03-01T02:54:37.924Z,47.53
2023-03-01T02:55:37.920Z,48.02
2023-03-01T02:56:37.901Z,47.70
2023-03-01T02:57:37.902Z,52.05
2023-03-01T02:58:37.905Z,53.82
2023-03-01T02:59:37.857Z,49.47
2023-03-01T03:00:37.899Z,49.63
2023-03-01T03:01:37.878Z,48.18
2023-03-01T03:02:37.855Z,48.50
2023-03-01T03:03:37.860Z,50.76
2023-03-01T03:04:37.849Z,54.95
2023-03-01T03:05:37.792Z,55.91
2023-03-01T03:06:37.804Z,52.37
2023-03-01T03:07:37.771Z,53.33
2023-03-01T03:08:37.819Z,48.34
2023-03-01T03:09:37.783Z,47.70
2023-03-01T03:10:37.754Z,48.18
2023-03-01T03:11:37.798Z,48.82
2023-03-01T03:12:37.737Z,48.34
2023-03-01T03:13:37.748Z,48.98
2023-03-01T03:14:37.711Z,48.34
2023-03-01T03:15:37.733Z,49.47
2023-03-01T03:16:37.715Z,48.66
2023-03-01T03:17:37.692Z,53.33
2023-03-01T03:18:37.679Z,50.27
2023-03-01T03:19:37.665Z,49.15
2023-03-01T03:20:37.690Z,50.27
2023-03-01T03:21:37.650Z,51.88
2023-03-01T03:22:37.654Z,50.92
2023-03-01T03:23:37.657Z,47.53
2023-03-01T03:24:37.617Z,51.88
2023-03-01T03:25:37.613Z,48.66
2023-03-01T03:26:37.640Z,48.18
2023-03-01T03:27:37.603Z,49.31
2023-03-01T03:28:37.587Z,48.66
2023-03-01T03:29:37.577Z,48.50
2023-03-01T03:30:37.565Z,53.50
2023-03-01T03:31:37.649Z,54.95
2023-03-01T03:32:37.566Z,50.76
2023-03-01T03:33:37.533Z,49.95
2023-03-01T03:34:37.533Z,51.88
2023-03-01T03:35:37.558Z,53.17
2023-03-01T03:36:37.514Z,53.33
2023-03-01T03:37:37.524Z,49.79
2023-03-01T03:38:37.497Z,51.56
2023-03-01T03:39:37.480Z,54.30
2023-03-01T03:40:37.513Z,54.46
2023-03-01T03:41:37.477Z,54.62
2023-03-01T03:42:37.457Z,52.05
2023-03-01T03:43:37.488Z,50.27
2023-03-01T03:44:37.501Z,48.98
2023-03-01T03:45:37.471Z,55.75
2023-03-01T03:46:37.431Z,54.62
2023-03-01T03:47:37.409Z,53.01
2023-03-01T03:48:37.425Z,50.92
2023-03-01T03:49:37.399Z,51.24
2023-03-01T03:50:37.387Z,55.43
2023-03-01T03:51:37.410Z,56.24
2023-03-01T03:52:37.366Z,53.98
2023-03-01T03:53:37.349Z,54.30
2023-03-01T03:54:37.342Z,53.01
2023-03-01T03:55:37.338Z,52.37
2023-03-01T03:56:38.766Z,56.56
2023-03-01T03:57:37.314Z,55.75
2023-03-01T03:58:37.325Z,52.85
2023-03-01T03:59:37.287Z,52.53
2023-03-01T04:00:37.302Z,53.82
2023-03-01T04:01:37.370Z,53.17
2023-03-01T04:02:37.342Z,52.85
2023-03-01T04:03:37.265Z,51.40
2023-03-01T04:04:37.275Z,54.95
2023-03-01T04:05:37.264Z,53.33
2023-03-01T04:06:37.249Z,54.62
2023-03-01T04:07:37.264Z,53.33
2023-03-01T04:08:37.269Z,53.01
2023-03-01T04:09:37.206Z,56.40
2023-03-01T04:10:37.219Z,57.04
2023-03-01T04:11:37.184Z,57.36
2023-03-01T04:12:37.196Z,56.24
2023-03-01T04:13:37.181Z,57.04
2023-03-01T04:14:37.171Z,56.24
2023-03-01T04:15:37.192Z,56.56
2023-03-01T04:16:37.202Z,58.65
2023-03-01T04:17:37.128Z,54.62
2023-03-01T04:18:37.119Z,52.53
2023-03-01T04:19:37.106Z,54.95
2023-03-01T04:20:37.114Z,55.27
2023-03-01T04:21:37.105Z,57.69
2023-03-01T04:22:37.077Z,51.88
2023-03-01T04:23:37.069Z,52.37
2023-03-01T04:24:37.060Z,56.24
2023-03-01T04:25:37.079Z,56.88
2023-03-01T04:26:37.054Z,55.91
2023-03-01T04:27:37.034Z,53.98
2023-03-01T04:28:37.022Z,53.66
2023-03-01T04:29:37.012Z,54.95
2023-03-01T04:30:37.008Z,54.95
2023-03-01T04:31:37.029Z,53.01
2023-03-01T04:32:37.106Z,53.82
2023-03-01T04:33:36.971Z,52.37
2023-03-01T04:34:36.973Z,57.69
2023-03-01T04:35:37.117Z,55.91
2023-03-01T04:36:37.376Z,54.62
2023-03-01T04:37:36.949Z,57.69
2023-03-01T04:38:36.925Z,57.36
2023-03-01T04:39:36.919Z,56.88
2023-03-01T04:40:36.925Z,56.40
2023-03-01T04:41:36.904Z,54.62
2023-03-01T04:42:36.883Z,56.56
2023-03-01T04:43:36.896Z,56.72
2023-03-01T04:44:36.869Z,56.56
2023-03-01T04:45:36.977Z,57.52
2023-03-01T04:46:36.857Z,55.43
2023-03-01T04:47:36.860Z,56.24
2023-03-01T04:48:36.848Z,59.30
2023-03-01T04:49:36.827Z,57.04
2023-03-01T04:50:36.852Z,56.56
2023-03-01T04:51:36.839Z,54.95
2023-03-01T04:52:36.804Z,58.17
2023-03-01T04:53:36.811Z,56.40
2023-03-01T04:54:36.765Z,56.07
2023-03-01T04:55:36.764Z,58.33
2023-03-01T04:56:36.763Z,54.62
2023-03-01T04:57:36.757Z,52.85
2023-03-01T04:58:36.735Z,53.33
2023-03-01T04:59:36.724Z,56.07
2023-03-01T05:00:36.726Z,55.43
2023-03-01T05:01:36.733Z,55.43
2023-03-01T05:02:36.744Z,54.95
2023-03-01T05:03:36.693Z,54.46
2023-03-01T05:04:36.719Z,56.07
2023-03-01T05:05:36.699Z,56.24
2023-03-01T05:06:36.656Z,54.46
2023-03-01T05:07:36.643Z,56.40
2023-03-01T05:08:36.638Z,54.30
2023-03-01T05:09:36.627Z,56.72
2023-03-01T05:10:36.643Z,55.91
2023-03-01T05:11:36.635Z,57.04
2023-03-01T05:12:36.601Z,57.85
2023-03-01T05:13:36.589Z,56.56
2023-03-01T05:14:36.597Z,58.17
2023-03-01T05:15:36.630Z,57.85
2023-03-01T05:16:36.981Z,58.33
2023-03-01T05:17:36.561Z,57.85
2023-03-01T05:18:36.570Z,57.52
2023-03-01T05:19:36.545Z,56.40
2023-03-01T05:20:36.559Z,55.91
2023-03-01T05:21:36.519Z,53.98
2023-03-01T05:22:36.513Z,58.01
2023-03-01T05:23:36.516Z,58.65
2023-03-01T05:24:36.501Z,56.88
2023-03-01T05:25:36.501Z,58.65
2023-03-01T05:26:36.569Z,58.65
2023-03-01T05:27:36.478Z,58.81
2023-03-01T05:28:36.481Z,60.59
2023-03-01T05:29:36.478Z,57.52
2023-03-01T05:30:36.435Z,58.81
2023-03-01T05:31:36.459Z,57.52
2023-03-01T05:32:36.434Z,58.01
2023-03-01T05:33:38.571Z,58.17
2023-03-01T05:34:36.409Z,60.75
2023-03-01T05:35:36.477Z,60.42
2023-03-01T05:36:36.404Z,58.65
2023-03-01T05:37:36.380Z,60.26
2023-03-01T05:38:36.371Z,56.88
2023-03-01T05:39:36.369Z,57.04
2023-03-01T05:40:36.350Z,58.33
2023-03-01T05:41:36.352Z,57.04
2023-03-01T05:42:36.338Z,58.49
2023-03-01T05:43:36.341Z,60.59
2023-03-01T05:44:36.309Z,58.81
2023-03-01T05:45:36.339Z,59.94
2023-03-01T05:46:36.290Z,60.91
2023-03-01T05:47:36.275Z,60.59
2023-03-01T05:48:36.319Z,59.78
2023-03-01T05:49:38.292Z,59.30
2023-03-01T05:50:36.257Z,61.07
2023-03-01T05:51:36.247Z,58.17
2023-03-01T05:52:36.231Z,59.14
2023-03-01T05:53:36.229Z,61.07
2023-03-01T05:54:36.238Z,58.33
2023-03-01T05:55:36.219Z,58.17
2023-03-01T05:56:36.213Z,60.42
2023-03-01T05:57:36.185Z,58.49
2023-03-01T05:58:36.189Z,58.65
2023-03-01T05:59:36.172Z,59.14
2023-03-01T06:00:36.156Z,60.10
2023-03-01T06:01:36.167Z,58.33
2023-03-01T06:02:36.148Z,59.14
2023-03-01T06:03:36.151Z,58.65
2023-03-01T06:04:37.169Z,59.46
2023-03-01T06:05:36.155Z,59.94
2023-03-01T06:06:36.139Z,58.65
2023-03-01T06:07:36.111Z,60.75
2023-03-01T06:08:36.112Z,61.07
2023-03-01T06:09:36.089Z,60.59
2023-03-01T06:10:36.066Z,59.14
2023-03-01T06:11:36.071Z,62.52
2023-03-01T06:12:36.032Z,59.62
2023-03-01T06:13:36.037Z,60.59
2023-03-01T06:14:36.037Z,58.65
2023-03-01T06:15:36.102Z,59.14
2023-03-01T06:16:36.010Z,58.49
2023-03-01T06:17:36.007Z,59.14
2023-03-01T06:18:35.996Z,58.97
2023-03-01T06:19:35.994Z,58.33
2023-03-01T06:20:35.977Z,58.65
2023-03-01T06:21:35.998Z,58.01
2023-03-01T06:22:35.946Z,60.75
2023-03-01T06:23:35.955Z,58.97
2023-03-01T06:24:35.932Z,58.01
2023-03-01T06:25:35.937Z,59.14
2023-03-01T06:26:35.921Z,59.62
2023-03-01T06:27:35.898Z,60.59
2023-03-01T06:28:35.890Z,60.10
2023-03-01T06:29:35.880Z,60.42
2023-03-01T06:30:35.896Z,59.14
2023-03-01T06:31:35.945Z,60.26
2023-03-01T06:32:35.858Z,60.59
2023-03-01T06:33:35.838Z,60.75
2023-03-01T06:34:35.840Z,60.59
2023-03-01T06:35:35.865Z,61.23
2023-03-01T06:36:35.838Z,63.00
2023-03-01T06:37:35.811Z,63.81
2023-03-01T06:38:35.820Z,61.07
2023-03-01T06:39:35.795Z,62.52
2023-03-01T06:40:35.783Z,62.04
2023-03-01T06:41:35.785Z,60.91
2023-03-01T06:42:36.786Z,59.14
2023-03-01T06:43:35.744Z,60.59
2023-03-01T06:44:35.754Z,59.46
2023-03-01T06:45:35.763Z,60.26
2023-03-01T06:46:35.783Z,59.30
2023-03-01T06:47:35.731Z,58.97
2023-03-01T06:48:35.708Z,60.26
2023-03-01T06:49:35.718Z,58.65
2023-03-01T06:50:35.783Z,59.46
2023-03-01T06:51:35.684Z,59.46
2023-03-01T06:52:35.669Z,56.88
2023-03-01T06:53:35.654Z,58.81
2023-03-01T06:54:35.653Z,59.78
2023-03-01T06:55:35.678Z,58.49
2023-03-01T06:56:35.632Z,58.33
2023-03-01T06:57:35.639Z,59.30
2023-03-01T06:58:35.655Z,58.65
2023-03-01T06:59:35.608Z,58.65
2023-03-01T07:00:35.611Z,58.65
2023-03-01T07:01:35.609Z,57.20
2023-03-01T07:02:35.601Z,56.88
2023-03-01T07:03:35.573Z,58.65
2023-03-01T07:04:35.563Z,59.46
2023-03-01T07:05:35.558Z,58.17
2023-03-01T07:06:35.527Z,56.56
2023-03-01T07:07:35.509Z,58.81
2023-03-01T07:08:35.531Z,57.69
2023-03-01T07:09:35.525Z,59.78
2023-03-01T07:10:35.498Z,58.17
2023-03-01T07:12:07.406Z,56.40
2023-03-01T07:12:35.477Z,58.17
2023-03-01T07:13:35.467Z,59.14
2023-03-01T07:14:35.447Z,61.23
2023-03-01T07:15:35.453Z,59.94
2023-03-01T07:16:35.649Z,58.81
2023-03-01T07:17:35.436Z,58.17
2023-03-01T07:18:35.411Z,56.56
2023-03-01T07:19:35.407Z,59.46
2023-03-01T07:20:35.390Z,57.04
2023-03-01T07:21:35.372Z,57.69
2023-03-01T07:22:36.397Z,56.72
2023-03-01T07:23:35.373Z,56.07
2023-03-01T07:24:35.349Z,58.65
2023-03-01T07:25:35.340Z,57.69
2023-03-01T07:26:35.334Z,57.52
2023-03-01T07:27:35.348Z,60.59
2023-03-01T07:28:35.316Z,59.30
2023-03-01T07:29:35.302Z,60.10
2023-03-01T07:30:35.292Z,61.71
2023-03-01T07:31:35.297Z,57.85
2023-03-01T07:32:35.370Z,57.20
2023-03-01T07:33:35.268Z,57.36
2023-03-01T07:34:35.252Z,59.30
2023-03-01T07:35:35.268Z,57.85
2023-03-01T07:36:35.251Z,58.01
2023-03-01T07:37:35.223Z,57.36
2023-03-01T07:38:35.231Z,56.40
2023-03-01T07:39:35.239Z,57.04
2023-03-01T07:40:35.202Z,59.62
2023-03-01T07:41:35.198Z,58.81
2023-03-01T07:42:35.181Z,57.69
2023-03-01T07:43:35.198Z,58.17
2023-03-01T07:44:35.182Z,57.85
2023-03-01T07:45:35.172Z,57.85
2023-03-01T07:46:35.146Z,59.78
2023-03-01T07:47:35.125Z,58.65
2023-03-01T07:48:35.122Z,57.36
2023-03-01T07:49:35.125Z,57.85
2023-03-01T07:50:35.110Z,56.72
2023-03-01T07:51:35.080Z,56.56
2023-03-01T07:52:35.067Z,58.01
2023-03-01T07:53:35.075Z,57.69
2023-03-01T07:54:35.060Z,58.65
2023-03-01T07:55:35.063Z,58.97
2023-03-01T07:56:35.037Z,57.36
2023-03-01T07:57:35.024Z,56.88
2023-03-01T07:58:35.011Z,58.17
2023-03-01T07:59:35.016Z,59.14
2023-03-01T08:00:35.012Z,58.49
2023-03-01T08:01:35.010Z,56.88
2023-03-01T08:02:34.975Z,57.04
2023-03-01T08:03:34.958Z,57.04
2023-03-01T08:04:34.960Z,58.17
2023-03-01T08:05:34.928Z,57.36
2023-03-01T08:06:34.918Z,56.56
2023-03-01T08:07:34.926Z,55.43
2023-03-01T08:08:34.896Z,57.04
2023-03-01T08:09:34.920Z,58.33
2023-03-01T08:10:34.888Z,57.36
2023-03-01T08:11:34.895Z,59.94
2023-03-01T08:12:34.854Z,58.65
2023-03-01T08:13:34.849Z,55.91
2023-03-01T08:14:34.850Z,57.04
2023-03-01T08:15:34.909Z,56.88
2023-03-01T08:16:34.999Z,57.04
2023-03-01T08:17:34.806Z,57.20
2023-03-01T08:18:34.810Z,58.33
2023-03-01T08:19:34.816Z,55.43
2023-03-01T08:20:34.858Z,56.56
2023-03-01T08:21:34.769Z,56.56
2023-03-01T08:22:34.769Z,58.17
2023-03-01T08:23:34.754Z,56.72
2023-03-01T08:24:34.737Z,57.85
2023-03-01T08:25:34.729Z,57.20
2023-03-01T08:26:34.734Z,56.40
2023-03-01T08:27:34.728Z,56.72
2023-03-01T08:28:34.705Z,56.72
2023-03-01T08:29:34.698Z,58.17
2023-03-01T08:30:34.700Z,54.95
2023-03-01T08:31:34.713Z,57.04
2023-03-01T08:32:34.693Z,59.14
2023-03-01T08:33:34.659Z,57.20
2023-03-01T08:34:35.654Z,57.36
2023-03-01T08:35:34.687Z,55.75
2023-03-01T08:36:34.856Z,58.01
2023-03-01T08:37:35.620Z,55.59
2023-03-01T08:38:34.643Z,56.88
2023-03-01T08:39:34.602Z,56.72
2023-03-01T08:40:34.599Z,57.04
2023-03-01T08:41:34.576Z,58.49
2023-03-01T08:42:34.562Z,56.24
2023-03-01T08:43:34.578Z,55.11
2023-03-01T08:44:34.565Z,56.24
2023-03-01T08:45:34.573Z,56.24
2023-03-01T08:46:34.774Z,59.30
2023-03-01T08:47:34.589Z,58.17
2023-03-01T08:48:34.551Z,56.07
2023-03-01T08:49:34.533Z,58.01
2023-03-01T08:50:34.498Z,55.75
2023-03-01T08:51:34.501Z,57.04
2023-03-01T08:52:34.521Z,57.85
2023-03-01T08:53:35.462Z,57.04
2023-03-01T08:54:34.454Z,56.88
2023-03-01T08:55:34.439Z,53.33
2023-03-01T08:56:34.433Z,55.91
2023-03-01T08:57:34.417Z,55.43
2023-03-01T08:58:34.458Z,57.69
2023-03-01T08:59:34.404Z,58.49
2023-03-01T09:00:34.378Z,54.30
2023-03-01T09:01:34.372Z,55.91
2023-03-01T09:02:34.423Z,57.52
2023-03-01T09:03:34.397Z,56.24
2023-03-01T09:04:34.376Z,55.27
2023-03-01T09:05:34.330Z,55.59
2023-03-01T09:06:34.325Z,57.04
2023-03-01T09:07:34.316Z,57.36
2023-03-01T09:08:34.299Z,56.07
2023-03-01T09:09:34.337Z,57.69
2023-03-01T09:10:34.283Z,57.85
2023-03-01T09:11:34.325Z,57.04
2023-03-01T09:12:34.272Z,58.17
2023-03-01T09:13:34.272Z,55.75
2023-03-01T09:14:34.265Z,57.20
2023-03-01T09:15:34.236Z,56.88
2023-03-01T09:16:34.436Z,55.59
2023-03-01T09:17:34.220Z,53.98
2023-03-01T09:18:34.218Z,56.56
2023-03-01T09:19:34.249Z,57.69
2023-03-01T09:20:34.181Z,58.97
2023-03-01T09:21:40.699Z,57.69
2023-03-01T09:22:36.212Z,57.36
2023-03-01T09:23:34.170Z,53.33
2023-03-01T09:24:34.187Z,55.11
2023-03-01T09:25:34.142Z,54.62
2023-03-01T09:26:34.363Z,57.69
2023-03-01T09:27:34.141Z,58.17
2023-03-01T09:28:34.112Z,56.56
2023-03-01T09:29:34.100Z,57.04
2023-03-01T09:30:34.179Z,58.17
2023-03-01T09:31:34.084Z,58.17
2023-03-01T09:32:34.114Z,55.43
2023-03-01T09:33:34.057Z,57.52
2023-03-01T09:34:34.068Z,55.91
2023-03-01T09:35:34.089Z,55.43
2023-03-01T09:36:34.213Z,56.56
2023-03-01T09:37:34.060Z,56.56
2023-03-01T09:38:34.040Z,56.88
2023-03-01T09:39:34.007Z,58.65
2023-03-01T09:40:34.004Z,58.49
2023-03-01T09:41:33.981Z,58.17
2023-03-01T09:42:33.992Z,56.24
2023-03-01T09:43:33.966Z,56.07
2023-03-01T09:44:33.991Z,55.91
2023-03-01T09:45:33.956Z,56.56
2023-03-01T09:46:34.417Z,56.56
2023-03-01T09:47:33.931Z,56.24
2023-03-01T09:48:33.977Z,58.33
2023-03-01T09:49:33.908Z,56.56
2023-03-01T09:50:33.900Z,57.52
2023-03-01T09:51:34.014Z,56.56
2023-03-01T09:52:33.875Z,56.07
2023-03-01T09:53:33.850Z,56.72
2023-03-01T09:54:33.852Z,58.97
2023-03-01T09:55:33.894Z,57.04
2023-03-01T09:56:33.840Z,58.17
2023-03-01T09:57:33.815Z,56.72
2023-03-01T09:58:33.820Z,56.56
2023-03-01T09:59:33.802Z,57.20
2023-03-01T10:00:33.806Z,55.91
2023-03-01T10:01:33.791Z,58.49
2023-03-01T10:02:33.779Z,57.69
2023-03-01T10:03:33.783Z,57.20
2023-03-01T10:04:35.408Z,57.69
2023-03-01T10:05:33.770Z,62.36
2023-03-01T10:06:35.508Z,60.75
2023-03-01T10:07:34.733Z,60.26
2023-03-01T10:08:33.708Z,59.46
2023-03-01T10:09:33.704Z,59.94
2023-03-01T10:10:33.700Z,59.94
2023-03-01T10:11:33.704Z,58.81
2023-03-01T10:12:33.675Z,57.52
2023-03-01T10:13:33.671Z,58.17
2023-03-01T10:14:33.674Z,57.52
2023-03-01T10:15:33.668Z,57.85
2023-03-01T10:16:33.633Z,57.36
2023-03-01T10:17:33.627Z,57.20
2023-03-01T10:18:33.683Z,56.07
2023-03-01T10:19:33.621Z,56.56
2023-03-01T10:20:33.600Z,56.88
2023-03-01T10:21:33.923Z,56.24
2023-03-01T10:22:33.598Z,57.04
2023-03-01T10:23:33.565Z,57.04
2023-03-01T10:24:33.553Z,57.04
2023-03-01T10:25:33.559Z,56.88
2023-03-01T10:26:33.849Z,56.56
2023-03-01T10:27:33.557Z,57.69
2023-03-01T10:28:33.518Z,56.56
2023-03-01T10:29:33.512Z,55.27
2023-03-01T10:30:33.529Z,57.04
2023-03-01T10:31:33.897Z,56.72
2023-03-01T10:32:33.521Z,56.40
2023-03-01T10:33:33.475Z,56.88
2023-03-01T10:34:33.477Z,56.56
2023-03-01T10:35:33.490Z,57.85
2023-03-01T10:36:33.636Z,56.72
2023-03-01T10:37:33.432Z,55.27
2023-03-01T10:38:33.429Z,58.01
2023-03-01T10:39:35.037Z,56.72
2023-03-01T10:40:33.419Z,58.33
2023-03-01T10:41:33.711Z,59.30
2023-03-01T10:42:33.409Z,56.24
2023-03-01T10:43:33.373Z,57.04
2023-03-01T10:44:33.357Z,58.65
2023-03-01T10:45:33.350Z,57.52
2023-03-01T10:46:33.384Z,58.33
2023-03-01T10:47:33.347Z,58.81
2023-03-01T10:48:33.338Z,56.56
2023-03-01T10:49:33.310Z,57.85
2023-03-01T10:50:33.309Z,56.72
2023-03-01T10:51:33.425Z,56.24
2023-03-01T10:52:33.304Z,56.24
2023-03-01T10:53:33.308Z,58.01
2023-03-01T10:54:33.287Z,57.36
2023-03-01T10:55:33.264Z,56.56
2023-03-01T10:56:33.256Z,57.85
2023-03-01T10:57:33.242Z,60.42
2023-03-01T10:58:33.243Z,58.17
2023-03-01T10:59:33.230Z,57.36
2023-03-01T11:00:33.230Z,57.04
2023-03-01T11:01:34.049Z,56.88
2023-03-01T11:02:33.279Z,58.49
2023-03-01T11:03:33.198Z,57.85
2023-03-01T11:04:33.224Z,59.78
2023-03-01T11:05:33.169Z,57.52
2023-03-01T11:06:33.154Z,56.24
2023-03-01T11:07:33.175Z,57.36
2023-03-01T11:08:34.866Z,58.65
2023-03-01T11:09:33.116Z,56.24
2023-03-01T11:10:33.136Z,57.20
2023-03-01T11:11:33.405Z,55.43
2023-03-01T11:12:33.090Z,56.56
2023-03-01T11:13:33.074Z,56.56
2023-03-01T11:14:33.085Z,56.56
2023-03-01T11:15:33.050Z,56.40
2023-03-01T11:16:33.105Z,56.24
2023-03-01T11:17:39.049Z,56.72
2023-03-01T11:18:47.066Z,56.07
2023-03-01T11:19:35.026Z,57.52
2023-03-01T11:20:33.047Z,54.79
2023-03-01T11:21:33.300Z,56.24
2023-03-01T11:22:33.009Z,55.43
2023-03-01T11:23:32.981Z,55.43
2023-03-01T11:24:32.977Z,57.04
2023-03-01T11:25:32.973Z,55.43
2023-03-01T11:26:33.167Z,55.75
2023-03-01T11:27:32.972Z,55.91
2023-03-01T11:28:32.932Z,56.56
2023-03-01T11:29:43.249Z,56.40
2023-03-01T11:30:34.911Z,56.88
2023-03-01T11:31:34.275Z,56.56
2023-03-01T11:32:32.973Z,54.79
2023-03-01T11:33:32.905Z,55.27
2023-03-01T11:34:32.908Z,54.30
2023-03-01T11:35:32.856Z,55.11
2023-03-01T11:36:32.862Z,56.56
2023-03-01T11:37:32.845Z,56.72
2023-03-01T11:38:32.867Z,57.69
2023-03-01T11:39:32.814Z,57.85
2023-03-01T11:40:32.810Z,57.85
2023-03-01T11:41:33.220Z,57.36
2023-03-01T11:42:32.825Z,56.88
2023-03-01T11:43:32.776Z,56.88
2023-03-01T11:44:32.841Z,57.69
2023-03-01T11:45:32.782Z,56.88
2023-03-01T11:46:32.959Z,56.56
2023-03-01T11:47:32.850Z,56.56
2023-03-01T11:48:48.515Z,56.88
2023-03-01T11:49:34.741Z,56.88
2023-03-01T11:50:32.718Z,55.27
2023-03-01T11:51:33.011Z,57.52
2023-03-01T11:52:32.688Z,56.56
2023-03-01T11:53:32.676Z,55.43
2023-03-01T11:54:32.697Z,53.50
2023-03-01T11:55:32.671Z,57.20
2023-03-01T11:56:32.669Z,54.62
2023-03-01T11:57:42.703Z,56.07
2023-03-01T11:58:34.632Z,56.56
2023-03-01T11:59:32.636Z,55.11
2023-03-01T12:00:32.638Z,54.79
2023-03-01T12:01:33.048Z,56.72
2023-03-01T12:02:32.634Z,57.04
2023-03-01T12:03:32.597Z,58.97
2023-03-01T12:04:32.593Z,57.36
2023-03-01T12:05:32.577Z,56.56
2023-03-01T12:06:32.568Z,56.40
2023-03-01T12:07:32.551Z,56.56
2023-03-01T12:08:32.546Z,56.56
2023-03-01T12:09:32.596Z,56.56
2023-03-01T12:10:32.501Z,56.07
2023-03-01T12:11:32.498Z,54.95
2023-03-01T12:12:32.497Z,57.69
2023-03-01T12:13:32.495Z,55.75
2023-03-01T12:14:32.492Z,58.65
2023-03-01T12:15:32.478Z,57.36
2023-03-01T12:16:38.842Z,57.69
2023-03-01T12:17:33.450Z,56.56
2023-03-01T12:18:32.428Z,57.20
2023-03-01T12:19:32.435Z,56.07
2023-03-01T12:20:32.452Z,55.11
2023-03-01T12:21:32.666Z,57.69
2023-03-01T12:22:32.415Z,57.36
2023-03-01T12:23:32.388Z,57.36
2023-03-01T12:24:32.387Z,56.56
2023-03-01T12:25:32.384Z,57.52
2023-03-01T12:26:32.366Z,58.33
2023-03-01T12:27:32.350Z,56.56
2023-03-01T12:28:32.378Z,57.04
2023-03-01T12:29:32.327Z,57.04
2023-03-01T12:30:32.350Z,56.56
2023-03-01T12:31:32.708Z,56.72
2023-03-01T12:32:34.054Z,57.69
2023-03-01T12:33:33.306Z,57.52
2023-03-01T12:34:32.276Z,55.43
2023-03-01T12:35:32.273Z,56.88
2023-03-01T12:36:33.651Z,55.27
2023-03-01T12:37:32.285Z,56.72
2023-03-01T12:38:32.259Z,57.52
2023-03-01T12:39:32.227Z,56.56
2023-03-01T12:40:32.218Z,54.95
2023-03-01T12:41:32.515Z,55.91
2023-03-01T12:42:32.207Z,56.07
2023-03-01T12:43:32.246Z,57.36
2023-03-01T12:44:32.191Z,56.56
2023-03-01T12:45:32.217Z,57.20
2023-03-01T12:46:32.522Z,56.88
2023-03-01T12:47:32.171Z,55.43
2023-03-01T12:48:32.144Z,56.40
2023-03-01T12:49:32.126Z,54.95
2023-03-01T12:50:32.118Z,54.30
2023-03-01T12:51:32.106Z,55.43
2023-03-01T12:52:32.147Z,55.27